Time;durP1;ratioP1;P1;durP2;ratioP2;P2;SDS_P1;SDS_P2;PMS_P1;PMS_P2;Temp;Humidity;BMP_temperature;BMP_pressure;BME280_temperature;BME280_humidity;BME280_pressure;Samples;Min_cycle;Max_cycle;Signal;HPM_P1;HPM_P2
2023/02/23 00:01:22;;;;;;;117.93;40.40;;;11.20;99.90;;;;;;5011542;28;25080;-75
2023/02/23 00:03:49;;;;;;;116.90;41.40;;;11.10;99.90;;;;;;5025332;28;25058;-76
2023/02/23 00:06:17;;;;;;;123.32;41.67;;;11.30;99.90;;;;;;5028289;28;25063;-75
2023/02/23 00:08:42;;;;;;;126.88;41.97;;;11.00;99.90;;;;;;5025627;28;25086;-76
2023/02/23 00:11:11;;;;;;;125.10;40.28;;;11.10;99.90;;;;;;5028418;28;25084;-75
2023/02/23 00:13:37;;;;;;;122.45;41.08;;;11.30;99.90;;;;;;5021062;28;25063;-75
2023/02/23 00:16:12;;;;;;;115.82;38.67;;;11.60;99.90;;;;;;5025987;28;25075;-75
2023/02/23 00:18:47;;;;;;;121.70;40.53;;;11.70;99.90;;;;;;5021466;28;25073;-75
2023/02/23 00:21:33;;;;;;;113.05;39.05;;;11.80;99.90;;;;;;5029749;28;25113;-75
2023/02/23 00:24:20;;;;;;;120.35;38.78;;;11.90;99.90;;;;;;5024869;28;25077;-76
2023/02/23 00:26:47;;;;;;;108.85;36.90;;;11.50;99.90;;;;;;5027253;28;25076;-75
2023/02/23 00:29:16;;;;;;;111.20;40.15;;;11.50;99.90;;;;;;5028599;28;25144;-76
2023/02/23 00:31:43;;;;;;;120.18;41.72;;;11.50;99.90;;;;;;5027752;28;25053;-75
2023/02/23 00:34:10;;;;;;;129.35;41.50;;;11.50;99.90;;;;;;5024818;28;25072;-76
2023/02/23 00:36:35;;;;;;;122.93;39.35;;;11.40;99.90;;;;;;5007462;28;25070;-77
2023/02/23 00:39:20;;;;;;;121.30;40.90;;;11.30;99.90;;;;;;5021104;28;25080;-74
2023/02/23 00:41:46;;;;;;;128.27;44.72;;;11.50;99.90;;;;;;5026731;28;25067;-76
2023/02/23 00:44:14;;;;;;;129.85;43.30;;;11.60;99.90;;;;;;5020359;28;25073;-77
2023/02/23 00:46:41;;;;;;;121.75;40.03;;;11.60;99.90;;;;;;5023211;28;25103;-77
2023/02/23 00:49:09;;;;;;;127.90;41.30;;;11.40;99.90;;;;;;5024634;28;25080;-76
2023/02/23 00:51:36;;;;;;;129.02;42.78;;;11.40;99.90;;;;;;5021659;28;25083;-76
2023/02/23 00:54:02;;;;;;;132.35;43.22;;;11.40;99.90;;;;;;5013122;28;25063;-77
2023/02/23 00:56:28;;;;;;;131.55;44.00;;;11.50;99.90;;;;;;5017858;28;25133;-76
2023/02/23 00:58:54;;;;;;;125.68;42.33;;;11.60;99.90;;;;;;5023489;28;25053;-75
2023/02/23 01:01:20;;;;;;;128.88;43.20;;;11.70;99.90;;;;;;5022520;28;25050;-74
2023/02/23 01:03:45;;;;;;;126.40;44.53;;;11.60;99.90;;;;;;5024400;28;25065;-77
2023/02/23 01:06:14;;;;;;;139.88;44.30;;;11.60;99.90;;;;;;5032220;28;25091;-77
2023/02/23 01:08:42;;;;;;;154.63;44.72;;;11.50;99.90;;;;;;5038303;28;25131;-76
2023/02/23 01:11:14;;;;;;;127.75;42.80;;;11.70;99.90;;;;;;5014531;28;25124;-75
2023/02/23 01:13:42;;;;;;;134.23;45.00;;;11.80;99.90;;;;;;5021813;28;25058;-75
2023/02/23 01:16:11;;;;;;;130.30;44.33;;;11.80;99.90;;;;;;5026092;28;25085;-76
2023/02/23 01:18:39;;;;;;;146.45;45.13;;;11.60;99.90;;;;;;5022483;28;25106;-76
2023/02/23 01:21:12;;;;;;;138.05;44.38;;;11.70;99.90;;;;;;5022017;28;25059;-77
2023/02/23 01:23:38;;;;;;;130.07;45.25;;;11.80;99.90;;;;;;5023516;28;25039;-76
2023/02/23 01:26:03;;;;;;;138.43;44.30;;;11.80;99.90;;;;;;5021285;28;25077;-77
2023/02/23 01:28:29;;;;;;;136.65;45.67;;;11.80;99.90;;;;;;5024676;28;25075;-79
2023/02/23 01:30:55;;;;;;;143.18;46.13;;;11.90;99.90;;;;;;5022938;28;25098;-76
2023/02/23 01:33:20;;;;;;;141.43;44.55;;;12.00;99.90;;;;;;5021007;28;25076;-75
2023/02/23 01:35:58;;;;;;;140.52;45.53;;;11.90;99.90;;;;;;5020327;28;25134;-76
2023/02/23 01:38:23;;;;;;;133.27;43.65;;;12.10;99.90;;;;;;5021172;28;25061;-76
2023/02/23 01:40:49;;;;;;;148.85;46.63;;;12.10;99.90;;;;;;5022069;28;25061;-75
2023/02/23 01:43:24;;;;;;;155.23;48.88;;;12.10;99.90;;;;;;5017998;28;25123;-74
2023/02/23 01:45:53;;;;;;;155.20;47.55;;;12.00;99.90;;;;;;5025475;28;25158;-75
2023/02/23 01:48:22;;;;;;;158.80;50.22;;;12.00;99.90;;;;;;5026234;28;25073;-75
2023/02/23 01:51:11;;;;;;;147.07;47.13;;;12.30;99.90;;;;;;5011392;28;25084;-77
2023/02/23 01:53:43;;;;;;;139.60;46.75;;;12.60;99.90;;;;;;5028441;28;25111;-79
2023/02/23 01:56:13;;;;;;;144.80;45.50;;;12.70;99.90;;;;;;5014580;28;25058;-76
2023/02/23 01:58:43;;;;;;;136.85;44.40;;;12.70;99.90;;;;;;5025767;28;25178;-76
2023/02/23 02:01:10;;;;;;;146.63;46.20;;;12.80;99.90;;;;;;5024190;28;25057;-75
2023/02/23 02:03:40;;;;;;;128.25;43.28;;;13.00;99.90;;;;;;5014256;28;25136;-77
2023/02/23 02:06:08;;;;;;;135.10;42.47;;;13.10;99.90;;;;;;5022489;28;25068;-76
2023/02/23 02:08:43;;;;;;;113.75;38.53;;;12.90;99.90;;;;;;5029433;28;25049;-75
2023/02/23 02:11:24;;;;;;;121.05;42.58;;;13.30;99.90;;;;;;5028857;28;25062;-77
2023/02/23 02:13:53;;;;;;;114.28;39.80;;;13.40;99.90;;;;;;5020977;28;25063;-76
2023/02/23 02:16:51;;;;;;;112.70;41.65;;;13.40;99.90;;;;;;5025036;28;25096;-77
2023/02/23 02:19:55;;;;;;;118.22;39.88;;;13.00;99.90;;;;;;5022775;28;25101;-77
2023/02/23 02:22:47;;;;;;;125.00;42.90;;;13.20;99.90;;;;;;5017335;28;25060;-75
2023/02/23 02:25:41;;;;;;;124.75;42.60;;;12.80;99.90;;;;;;5024282;28;25066;-75
2023/02/23 02:28:25;;;;;;;122.38;43.38;;;12.80;99.90;;;;;;5018829;28;25129;-77
2023/02/23 02:31:22;;;;;;;137.27;45.53;;;12.60;99.90;;;;;;5019594;28;25049;-76
2023/02/23 02:34:18;;;;;;;125.78;43.08;;;12.60;99.90;;;;;;5025963;28;25070;-76
2023/02/23 02:37:05;;;;;;;129.30;45.42;;;12.30;99.90;;;;;;5025785;28;25060;-77
2023/02/23 02:40:15;;;;;;;139.70;44.10;;;12.40;99.90;;;;;;5006636;28;25060;-77
2023/02/23 02:43:08;;;;;;;135.45;43.50;;;12.60;99.90;;;;;;5018628;28;25059;-76
2023/02/23 02:45:42;;;;;;;129.55;42.78;;;13.00;99.90;;;;;;5031648;28;25055;-76
2023/02/23 02:48:56;;;;;;;140.50;44.88;;;13.10;99.90;;;;;;5035306;28;25091;-77
2023/02/23 02:51:38;;;;;;;119.85;40.55;;;13.10;99.90;;;;;;5012862;28;25055;-76
2023/02/23 02:54:28;;;;;;;119.65;42.50;;;12.80;99.90;;;;;;5016054;28;25174;-76
2023/02/23 02:56:56;;;;;;;126.25;41.85;;;12.80;99.90;;;;;;5023876;28;25097;-76
2023/02/23 04:18:06;;;;;;;132.00;41.97;;;11.80;99.90;;;;;;5023504;28;25071;-77
2023/02/23 04:20:32;;;;;;;128.90;41.53;;;11.70;99.90;;;;;;5015419;28;25093;-77
2023/02/23 04:22:58;;;;;;;160.73;44.03;;;11.80;99.90;;;;;;5023495;28;25115;-77
2023/02/23 04:25:25;;;;;;;115.03;40.20;;;11.90;99.90;;;;;;5027589;28;25081;-77
2023/02/23 04:27:51;;;;;;;127.53;41.30;;;12.10;99.90;;;;;;5025088;28;25084;-76
2023/02/23 04:30:19;;;;;;;131.68;42.40;;;12.40;99.90;;;;;;5025639;28;25147;-78
2023/02/23 04:32:44;;;;;;;146.85;42.83;;;12.50;99.90;;;;;;5026227;28;25140;-77
2023/02/23 04:35:12;;;;;;;120.32;40.50;;;12.40;99.90;;;;;;5013384;28;25156;-77
2023/02/23 04:37:38;;;;;;;107.25;38.80;;;12.60;99.90;;;;;;5021561;28;25078;-76
2023/02/23 04:40:05;;;;;;;128.82;40.78;;;12.50;99.90;;;;;;5024346;28;24833;-76
2023/02/23 04:42:30;;;;;;;123.25;40.88;;;12.70;99.90;;;;;;5025011;28;25050;-76
2023/02/23 04:44:56;;;;;;;111.70;38.95;;;12.60;99.90;;;;;;5025465;28;25048;-77
2023/02/23 04:47:22;;;;;;;118.25;38.15;;;12.60;99.90;;;;;;5027530;28;25059;-77
2023/02/23 04:49:47;;;;;;;117.05;37.85;;;12.50;99.90;;;;;;5028940;28;25099;-76
2023/02/23 04:52:13;;;;;;;123.07;41.83;;;12.40;99.90;;;;;;5032070;28;25084;-76
2023/02/23 04:54:40;;;;;;;127.30;40.47;;;12.60;99.90;;;;;;5025496;28;25069;-76
2023/02/23 04:57:06;;;;;;;145.52;44.17;;;12.40;99.90;;;;;;5030113;28;25100;-77
2023/02/23 04:59:32;;;;;;;131.13;40.95;;;12.40;99.90;;;;;;5028199;28;25101;-76
2023/02/23 05:01:58;;;;;;;120.55;39.58;;;12.20;99.90;;;;;;5030060;28;25108;-78
2023/02/23 05:04:24;;;;;;;127.53;41.80;;;12.20;99.90;;;;;;5030304;28;25086;-76
2023/02/23 05:06:49;;;;;;;114.35;40.40;;;12.40;99.90;;;;;;5030630;28;25106;-76
2023/02/23 05:09:15;;;;;;;138.80;43.20;;;12.20;99.90;;;;;;5032723;28;25056;-76
2023/02/23 05:11:41;;;;;;;107.40;37.50;;;12.30;99.90;;;;;;5031313;28;25079;-76
2023/02/23 05:14:07;;;;;;;131.57;41.05;;;12.20;99.90;;;;;;5027388;28;25059;-76
2023/02/23 05:16:33;;;;;;;113.40;39.13;;;12.20;99.90;;;;;;5017514;28;25075;-75
2023/02/23 05:18:59;;;;;;;114.72;39.08;;;12.20;99.90;;;;;;5010719;28;25056;-76
2023/02/23 05:21:24;;;;;;;128.27;41.97;;;12.20;99.90;;;;;;5020865;28;25061;-78
2023/02/23 05:23:50;;;;;;;110.90;40.28;;;12.20;99.90;;;;;;5023510;28;25199;-76
2023/02/23 05:26:15;;;;;;;108.30;37.85;;;12.00;99.90;;;;;;5027094;28;25080;-76
2023/02/23 05:28:41;;;;;;;118.63;41.25;;;12.00;99.90;;;;;;5022341;28;25056;-73
2023/02/23 05:31:07;;;;;;;106.43;39.85;;;11.80;99.90;;;;;;5010009;28;25047;-75
2023/02/23 05:33:41;;;;;;;124.57;40.50;;;11.60;99.90;;;;;;5017509;28;25129;-75
2023/02/23 05:36:08;;;;;;;129.68;44.30;;;11.50;99.90;;;;;;5018337;28;25079;-74
2023/02/23 05:38:34;;;;;;;115.90;41.33;;;11.30;99.90;;;;;;5019807;28;25081;-75
2023/02/23 05:41:04;;;;;;;107.30;38.58;;;11.10;99.90;;;;;;5020246;28;25061;-75
2023/02/23 05:43:29;;;;;;;126.03;41.35;;;11.00;99.90;;;;;;5016627;28;25054;-75
2023/02/23 05:45:55;;;;;;;126.47;41.38;;;11.00;99.90;;;;;;5017384;28;25089;-75
2023/02/23 05:48:21;;;;;;;127.95;40.33;;;11.00;99.90;;;;;;5020332;28;24811;-75
2023/02/23 05:50:47;;;;;;;121.72;40.20;;;11.10;99.90;;;;;;5015139;28;25064;-77
2023/02/23 05:53:12;;;;;;;135.40;40.33;;;11.30;99.90;;;;;;5015074;28;25080;-75
2023/02/23 05:55:38;;;;;;;124.45;39.67;;;11.20;99.90;;;;;;5021867;28;25065;-75
2023/02/23 05:58:03;;;;;;;124.57;41.03;;;11.50;99.90;;;;;;5022374;28;25066;-76
2023/02/23 06:00:29;;;;;;;114.85;39.88;;;11.50;99.90;;;;;;5022231;28;25112;-76
2023/02/23 06:02:55;;;;;;;113.65;38.45;;;11.60;99.90;;;;;;5022584;28;25055;-77
2023/02/23 06:05:20;;;;;;;131.82;41.90;;;11.60;99.90;;;;;;5027817;28;25100;-75
2023/02/23 06:07:46;;;;;;;128.43;41.70;;;11.70;99.90;;;;;;5028492;28;25056;-76
2023/02/23 06:10:13;;;;;;;126.80;40.47;;;11.80;99.90;;;;;;5011084;28;25066;-76
2023/02/23 06:12:38;;;;;;;113.25;39.42;;;11.90;99.90;;;;;;5025739;28;25074;-76
2023/02/23 06:15:05;;;;;;;115.70;38.70;;;11.80;99.90;;;;;;5027589;28;25078;-75
2023/02/23 06:17:30;;;;;;;122.78;39.22;;;11.80;99.90;;;;;;5019292;28;25077;-76
2023/02/23 06:19:57;;;;;;;116.10;38.70;;;11.90;99.90;;;;;;5011996;28;25138;-75
2023/02/23 06:22:23;;;;;;;136.75;41.78;;;11.80;99.90;;;;;;5021718;28;25109;-77
2023/02/23 06:24:48;;;;;;;130.77;39.13;;;12.00;99.90;;;;;;5021474;28;25097;-77
2023/02/23 06:27:14;;;;;;;109.55;37.88;;;12.10;99.90;;;;;;5018321;28;25060;-77
2023/02/23 06:29:40;;;;;;;105.63;36.53;;;12.20;99.90;;;;;;5019397;28;25074;-77
2023/02/23 06:32:06;;;;;;;105.40;38.72;;;12.20;99.90;;;;;;5012497;28;25110;-75
2023/02/23 06:34:33;;;;;;;105.40;37.35;;;12.30;99.90;;;;;;5022731;28;25171;-75
2023/02/23 06:36:58;;;;;;;100.65;35.90;;;12.20;99.90;;;;;;5001884;28;25125;-75
2023/02/23 06:39:24;;;;;;;108.97;37.63;;;11.90;99.90;;;;;;5016912;28;25058;-74
2023/02/23 06:41:49;;;;;;;113.40;39.75;;;12.00;99.90;;;;;;5021315;28;25110;-75
2023/02/23 06:44:15;;;;;;;115.75;38.55;;;11.80;99.90;;;;;;5024798;28;25081;-77
2023/02/23 06:46:40;;;;;;;126.78;39.30;;;11.70;99.90;;;;;;5024881;28;25076;-76
2023/02/23 06:49:06;;;;;;;124.13;38.50;;;11.70;99.90;;;;;;5022278;28;25074;-76
2023/02/23 06:51:32;;;;;;;134.77;43.10;;;12.00;99.90;;;;;;5025083;28;25086;-76
2023/02/23 06:53:57;;;;;;;134.10;43.85;;;12.20;99.90;;;;;;5022716;28;25062;-76
2023/02/23 06:56:23;;;;;;;129.55;38.83;;;12.10;99.90;;;;;;5018675;28;25085;-75
2023/02/23 06:58:48;;;;;;;125.18;39.05;;;12.20;99.90;;;;;;5022553;28;25053;-76
2023/02/23 07:01:15;;;;;;;118.18;38.03;;;12.30;99.90;;;;;;5022536;28;25144;-74
2023/02/23 07:03:41;;;;;;;121.10;36.75;;;12.60;99.90;;;;;;5030258;28;25062;-77
2023/02/23 07:06:07;;;;;;;107.63;37.38;;;12.40;99.90;;;;;;5025942;28;25128;-78
2023/02/23 07:08:33;;;;;;;118.30;39.35;;;12.70;99.90;;;;;;5025522;28;25078;-76
2023/02/23 07:11:12;;;;;;;115.68;39.30;;;12.40;99.90;;;;;;5024455;28;25114;-76
2023/02/23 07:13:38;;;;;;;121.78;38.28;;;12.50;99.90;;;;;;5019601;28;25073;-76
2023/02/23 07:16:04;;;;;;;113.30;38.78;;;12.60;99.90;;;;;;5028018;28;25146;-76
2023/02/23 07:18:30;;;;;;;102.80;35.50;;;12.60;99.90;;;;;;5022212;28;25112;-76
2023/02/23 07:20:56;;;;;;;118.50;38.28;;;12.30;99.90;;;;;;5026085;28;25106;-76
2023/02/23 07:23:22;;;;;;;117.65;38.20;;;12.20;99.90;;;;;;5025355;28;25147;-77
2023/02/23 07:25:56;;;;;;;110.00;38.58;;;12.00;99.90;;;;;;5023924;28;25097;-76
2023/02/23 07:28:23;;;;;;;131.18;39.50;;;12.10;99.90;;;;;;5022092;28;25144;-76
2023/02/23 07:30:48;;;;;;;119.22;37.28;;;12.00;99.90;;;;;;5024875;28;25103;-76
2023/02/23 07:33:15;;;;;;;126.03;39.45;;;12.10;99.90;;;;;;5025340;28;25097;-76
2023/02/23 07:35:41;;;;;;;128.85;39.05;;;11.80;99.90;;;;;;5025872;28;25072;-76
2023/02/23 07:38:07;;;;;;;122.10;38.60;;;12.10;99.90;;;;;;5028423;28;25063;-77
2023/02/23 07:40:33;;;;;;;128.77;38.40;;;12.00;99.90;;;;;;5034941;28;25085;-76
2023/02/23 07:42:59;;;;;;;139.57;39.95;;;12.10;99.90;;;;;;5026978;28;25067;-75
2023/02/23 07:45:25;;;;;;;118.72;39.00;;;12.10;99.90;;;;;;5021259;28;25075;-77
2023/02/23 07:47:51;;;;;;;128.50;37.65;;;12.20;99.90;;;;;;5037584;28;25073;-77
2023/02/23 07:50:16;;;;;;;140.70;38.90;;;12.40;99.90;;;;;;5040563;28;25113;-76
2023/02/23 07:52:43;;;;;;;130.88;37.28;;;12.50;99.90;;;;;;5044686;28;25056;-75
2023/02/23 07:55:10;;;;;;;137.40;39.78;;;12.60;99.90;;;;;;5031106;28;25084;-75
2023/02/23 07:57:35;;;;;;;128.77;35.60;;;13.00;99.90;;;;;;5040732;28;25062;-76
2023/02/23 08:00:01;;;;;;;135.15;40.10;;;12.90;99.90;;;;;;5045902;28;25060;-77
2023/02/23 08:02:28;;;;;;;132.50;37.38;;;13.10;99.90;;;;;;5040342;28;25069;-76
2023/02/23 08:04:54;;;;;;;132.07;37.08;;;13.40;99.90;;;;;;5040294;28;25062;-76
2023/02/23 08:07:20;;;;;;;126.95;36.45;;;13.30;99.90;;;;;;5039017;28;25057;-77
2023/02/23 08:09:47;;;;;;;126.75;36.65;;;13.70;99.90;;;;;;5039089;28;25124;-76
2023/02/23 08:12:14;;;;;;;128.55;38.08;;;13.50;99.90;;;;;;5040060;28;25073;-76
2023/02/23 08:14:39;;;;;;;123.05;38.72;;;13.80;99.90;;;;;;5024748;28;25063;-76
2023/02/23 08:17:05;;;;;;;116.35;34.28;;;13.90;99.90;;;;;;5031950;28;25055;-76
2023/02/23 08:19:30;;;;;;;109.30;34.05;;;13.90;99.90;;;;;;5028462;28;25074;-75
2023/02/23 08:21:56;;;;;;;107.57;32.13;;;14.00;99.90;;;;;;5026185;28;25059;-76
2023/02/23 08:24:21;;;;;;;105.85;32.28;;;13.60;99.90;;;;;;5011721;28;25163;-76
2023/02/23 08:26:49;;;;;;;101.93;31.27;;;13.70;99.90;;;;;;5029228;28;25054;-75
2023/02/23 08:29:15;;;;;;;96.65;30.83;;;13.90;99.90;;;;;;5028435;28;25062;-76
2023/02/23 08:31:41;;;;;;;100.13;30.10;;;13.70;99.90;;;;;;5016310;28;25105;-76
2023/02/23 08:34:06;;;;;;;95.15;28.60;;;13.70;99.90;;;;;;5027982;28;25147;-75
2023/02/23 08:36:32;;;;;;;100.93;29.98;;;13.60;99.90;;;;;;5021432;28;25312;-76
2023/02/23 08:38:59;;;;;;;106.10;30.42;;;13.60;99.90;;;;;;5028355;28;25054;-77
2023/02/23 08:41:26;;;;;;;90.20;29.88;;;13.80;99.90;;;;;;5011727;28;25071;-73
2023/02/23 08:43:52;;;;;;;94.10;30.33;;;13.50;99.90;;;;;;5020165;28;25131;-77
2023/02/23 08:46:19;;;;;;;91.70;29.63;;;13.50;99.90;;;;;;5028379;28;25057;-76
2023/02/23 08:48:45;;;;;;;84.63;28.95;;;13.50;99.90;;;;;;5025105;28;25083;-74
2023/02/23 08:51:13;;;;;;;95.60;29.73;;;13.50;99.90;;;;;;5029186;28;25068;-75
2023/02/23 08:53:39;;;;;;;89.28;28.17;;;13.50;99.90;;;;;;5027118;28;25097;-75
2023/02/23 08:56:06;;;;;;;97.28;29.95;;;13.40;99.90;;;;;;5021168;28;25068;-76
2023/02/23 08:58:33;;;;;;;96.57;30.13;;;13.40;99.90;;;;;;5023964;28;25077;-76
2023/02/23 09:00:59;;;;;;;84.20;27.58;;;13.50;99.90;;;;;;5027546;28;25158;-75
2023/02/23 09:03:27;;;;;;;83.20;26.40;;;13.40;99.90;;;;;;5026473;28;25085;-75
2023/02/23 09:05:53;;;;;;;90.00;29.58;;;13.40;99.90;;;;;;5025169;28;25122;-76
2023/02/23 09:08:20;;;;;;;87.03;27.02;;;13.40;99.90;;;;;;5012471;28;25142;-76
2023/02/23 09:10:45;;;;;;;81.03;26.02;;;13.30;99.90;;;;;;5026014;28;25124;-75
2023/02/23 09:13:11;;;;;;;77.50;26.23;;;13.30;99.90;;;;;;5030995;28;25158;-73
2023/02/23 09:15:38;;;;;;;65.80;23.35;;;13.40;99.90;;;;;;5029532;28;25084;-75
2023/02/23 09:18:05;;;;;;;68.75;24.63;;;13.00;99.90;;;;;;5027311;28;25055;-75
2023/02/23 09:20:31;;;;;;;65.57;23.67;;;12.90;99.90;;;;;;5033114;28;25063;-74
2023/02/23 09:22:57;;;;;;;72.85;24.58;;;12.90;99.90;;;;;;5025663;28;25015;-75
2023/02/23 09:25:23;;;;;;;68.43;23.00;;;12.70;99.90;;;;;;5023305;28;25072;-74
2023/02/23 09:27:50;;;;;;;71.13;24.15;;;12.70;99.90;;;;;;5027412;28;25137;-74
2023/02/23 09:30:19;;;;;;;64.47;22.50;;;12.70;99.90;;;;;;5027496;28;25084;-74
2023/02/23 09:32:46;;;;;;;68.90;23.58;;;12.50;99.90;;;;;;5025408;28;25100;-76
2023/02/23 09:35:13;;;;;;;62.88;21.90;;;12.40;99.90;;;;;;5028345;28;25090;-75
2023/02/23 09:37:38;;;;;;;55.13;20.52;;;12.10;99.90;;;;;;5031802;28;25087;-76
2023/02/23 09:40:06;;;;;;;59.05;19.92;;;12.00;99.90;;;;;;5037052;28;25064;-74
2023/02/23 09:42:41;;;;;;;52.47;19.20;;;11.90;99.90;;;;;;5035495;28;25061;-76
2023/02/23 09:45:36;;;;;;;50.47;18.73;;;11.70;99.90;;;;;;5034983;28;25076;-75
2023/02/23 09:48:15;;;;;;;45.25;17.23;;;11.70;99.90;;;;;;5027480;28;25075;-76
2023/02/23 09:50:45;;;;;;;47.65;16.67;;;11.50;99.90;;;;;;5018152;28;25071;-74
2023/02/23 09:53:23;;;;;;;47.38;18.38;;;11.40;99.90;;;;;;5008797;28;25045;-75
2023/02/23 09:55:50;;;;;;;41.78;15.88;;;11.40;99.90;;;;;;5026135;28;25082;-75
2023/02/23 09:58:26;;;;;;;48.00;17.25;;;11.10;99.90;;;;;;5021584;28;25090;-76
2023/02/23 10:01:14;;;;;;;47.30;17.08;;;11.10;99.90;;;;;;5029020;28;25079;-77
2023/02/23 10:03:49;;;;;;;51.38;17.77;;;11.10;99.90;;;;;;5022413;28;25177;-76
2023/02/23 10:06:16;;;;;;;46.92;16.90;;;11.00;99.90;;;;;;5022849;28;25076;-75
2023/02/23 10:09:03;;;;;;;44.08;15.77;;;10.90;99.90;;;;;;5026772;28;25061;-75
2023/02/23 10:11:44;;;;;;;37.05;14.43;;;11.00;99.90;;;;;;5010385;28;25087;-75
2023/02/23 10:14:29;;;;;;;46.38;15.90;;;10.80;99.90;;;;;;5025915;28;25088;-76
2023/02/23 10:17:16;;;;;;;37.13;15.48;;;10.70;99.90;;;;;;5021590;28;25067;-77
2023/02/23 10:20:17;;;;;;;36.95;14.63;;;10.80;99.90;;;;;;5027366;28;25087;-76
2023/02/23 10:22:45;;;;;;;27.20;10.73;;;10.80;99.90;;;;;;5019036;28;25075;-74
2023/02/23 10:25:16;;;;;;;26.08;10.95;;;10.70;99.90;;;;;;5008654;28;25081;-74
2023/02/23 10:27:46;;;;;;;34.63;12.43;;;10.60;99.90;;;;;;5027845;28;25144;-77
2023/02/23 10:30:22;;;;;;;31.17;11.68;;;10.50;99.90;;;;;;5025811;28;25128;-76
2023/02/23 10:33:34;;;;;;;30.75;10.88;;;10.40;99.90;;;;;;5017007;28;25112;-75
2023/02/23 10:36:13;;;;;;;32.67;11.63;;;10.50;99.90;;;;;;5022103;28;25090;-76
2023/02/23 10:38:39;;;;;;;28.58;11.05;;;10.40;99.90;;;;;;5027531;28;25081;-75
2023/02/23 10:41:05;;;;;;;31.15;12.30;;;10.40;99.90;;;;;;5009345;28;25172;-75
2023/02/23 10:43:31;;;;;;;25.63;10.23;;;10.50;99.90;;;;;;5022103;28;25081;-76
2023/02/23 10:45:57;;;;;;;31.50;11.20;;;10.30;99.90;;;;;;5018116;28;25143;-77
2023/02/23 10:48:25;;;;;;;25.85;10.18;;;10.30;99.90;;;;;;5026368;28;25085;-76
2023/02/23 10:51:01;;;;;;;25.17;9.82;;;10.20;99.90;;;;;;5007547;28;25065;-75
2023/02/23 10:53:34;;;;;;;25.35;10.20;;;10.20;99.90;;;;;;5033255;28;25149;-76
2023/02/23 10:56:14;;;;;;;24.50;9.65;;;10.30;99.90;;;;;;5019936;28;25092;-76
2023/02/23 10:58:45;;;;;;;25.70;10.38;;;10.30;99.90;;;;;;5029223;28;25124;-76
2023/02/23 11:01:12;;;;;;;23.33;9.88;;;10.20;99.90;;;;;;5033196;28;25080;-75
2023/02/23 11:03:49;;;;;;;21.42;9.93;;;10.20;99.90;;;;;;5026905;28;25069;-76
2023/02/23 11:06:39;;;;;;;26.10;10.50;;;10.10;99.90;;;;;;5015689;28;25073;-75
2023/02/23 11:09:30;;;;;;;22.40;9.73;;;10.10;99.90;;;;;;5024725;28;25075;-75
2023/02/23 11:12:01;;;;;;;21.25;9.07;;;10.10;99.90;;;;;;5024079;28;25028;-74
2023/02/23 11:14:29;;;;;;;24.40;10.23;;;10.10;99.90;;;;;;5024966;28;25149;-76
2023/02/23 11:16:56;;;;;;;17.60;9.77;;;10.10;99.90;;;;;;5024562;28;25078;-77
2023/02/23 11:19:42;;;;;;;20.20;9.30;;;10.10;99.90;;;;;;5025993;28;25156;-75
2023/02/23 11:22:22;;;;;;;18.63;9.40;;;10.00;99.90;;;;;;5007824;28;25084;-74
2023/02/23 11:24:48;;;;;;;22.48;9.25;;;9.90;99.90;;;;;;5024261;28;25158;-74
2023/02/23 11:27:26;;;;;;;20.23;9.57;;;10.10;99.90;;;;;;5025951;28;25069;-74
2023/02/23 11:29:55;;;;;;;18.42;7.60;;;10.20;99.90;;;;;;5027701;28;25065;-74
2023/02/23 11:32:22;;;;;;;18.75;8.18;;;10.10;99.90;;;;;;5017764;28;25053;-75
2023/02/23 11:35:19;;;;;;;16.92;7.85;;;10.10;99.90;;;;;;5027706;28;25075;-75
2023/02/23 11:37:45;;;;;;;20.38;8.55;;;10.10;99.90;;;;;;5023731;28;25054;-76
2023/02/23 11:40:29;;;;;;;20.27;8.00;;;10.00;99.90;;;;;;5024743;28;25122;-75
2023/02/23 11:43:06;;;;;;;11.63;6.15;;;10.00;99.90;;;;;;5006297;28;25069;-75
2023/02/23 11:45:37;;;;;;;14.40;6.85;;;10.00;99.90;;;;;;5029544;28;25073;-72
2023/02/23 11:48:04;;;;;;;14.98;6.50;;;9.80;99.90;;;;;;5030395;28;25075;-77
2023/02/23 11:50:34;;;;;;;17.10;7.03;;;9.70;99.90;;;;;;5029843;28;25185;-74
2023/02/23 11:53:15;;;;;;;20.85;8.25;;;9.70;99.90;;;;;;5030641;28;25089;-74
2023/02/23 11:55:47;;;;;;;18.05;8.15;;;9.80;99.90;;;;;;5030225;28;25076;-76
2023/02/23 11:58:28;;;;;;;18.25;7.25;;;9.80;99.90;;;;;;5031156;28;25100;-75
2023/02/23 12:01:03;;;;;;;20.77;8.80;;;9.70;99.90;;;;;;5025131;28;25060;-75
2023/02/23 12:03:32;;;;;;;19.45;7.90;;;9.70;99.90;;;;;;5025778;28;25124;-75
2023/02/23 12:05:58;;;;;;;18.17;7.68;;;9.80;99.90;;;;;;5025681;28;25147;-76
2023/02/23 12:08:36;;;;;;;17.63;8.10;;;9.90;99.90;;;;;;5024182;28;25066;-76
2023/02/23 12:11:11;;;;;;;19.50;7.30;;;10.00;99.90;;;;;;5025331;28;25083;-75
2023/02/23 12:13:43;;;;;;;24.98;7.30;;;9.90;99.90;;;;;;5020674;28;25118;-75
2023/02/23 12:16:23;;;;;;;17.70;7.03;;;9.80;99.90;;;;;;5027319;28;25143;-75
2023/02/23 12:19:21;;;;;;;11.70;5.13;;;9.90;99.90;;;;;;5023047;28;25091;-75
2023/02/23 12:22:03;;;;;;;19.25;6.30;;;9.80;99.90;;;;;;5023066;28;25143;-76
2023/02/23 12:24:56;;;;;;;15.23;5.88;;;9.80;99.90;;;;;;5005460;28;25071;-75
2023/02/23 12:27:25;;;;;;;15.02;5.80;;;9.90;99.90;;;;;;5027184;28;25071;-75
2023/02/23 12:30:01;;;;;;;13.48;6.18;;;9.90;99.90;;;;;;5026116;28;25068;-74
2023/02/23 12:32:39;;;;;;;11.07;5.65;;;9.90;99.90;;;;;;5019945;28;25085;-74
2023/02/23 12:35:21;;;;;;;15.07;5.65;;;9.80;99.90;;;;;;5017235;28;25115;-76
2023/02/23 12:37:53;;;;;;;10.77;5.63;;;9.90;99.90;;;;;;5023966;28;25104;-73
2023/02/23 12:40:27;;;;;;;12.30;5.60;;;9.90;99.90;;;;;;5027413;28;25081;-74
2023/02/23 12:43:23;;;;;;;13.65;5.68;;;9.90;99.90;;;;;;5020053;28;25087;-76
2023/02/23 12:45:56;;;;;;;11.93;3.67;;;9.80;99.90;;;;;;5022123;28;25051;-73
2023/02/23 12:48:33;;;;;;;8.52;3.90;;;9.80;99.90;;;;;;5013491;28;25078;-74
2023/02/23 12:51:03;;;;;;;11.00;4.88;;;9.60;99.90;;;;;;5025340;28;25053;-75
2023/02/23 12:53:33;;;;;;;11.73;5.10;;;9.70;99.90;;;;;;5028858;28;25143;-73
2023/02/23 12:56:10;;;;;;;15.10;6.38;;;9.80;99.90;;;;;;5029926;28;25106;-76
2023/02/23 12:58:57;;;;;;;10.95;5.25;;;9.80;99.90;;;;;;5031287;28;25159;-76
2023/02/23 13:01:35;;;;;;;11.07;5.20;;;9.60;99.90;;;;;;5030621;28;25117;-75
2023/02/23 13:04:32;;;;;;;9.38;4.60;;;9.60;99.90;;;;;;5014948;28;25050;-77
2023/02/23 13:07:34;;;;;;;11.73;6.10;;;9.70;99.90;;;;;;5027308;28;25095;-76
2023/02/23 13:10:30;;;;;;;11.30;5.32;;;9.80;99.90;;;;;;4993080;28;25189;-72
2023/02/23 13:13:19;;;;;;;16.25;4.45;;;9.80;99.90;;;;;;5027990;28;25069;-77
2023/02/23 13:15:45;;;;;;;16.00;4.95;;;9.70;99.90;;;;;;5028769;28;25081;-74
2023/02/23 13:18:33;;;;;;;11.07;4.95;;;9.80;99.90;;;;;;5032376;28;25110;-75
2023/02/23 13:21:20;;;;;;;17.23;5.43;;;9.90;99.90;;;;;;5033418;28;25102;-72
2023/02/23 13:23:53;;;;;;;17.45;5.88;;;9.90;99.90;;;;;;5034366;28;25149;-73
2023/02/23 13:26:41;;;;;;;18.15;5.15;;;9.90;99.90;;;;;;5033181;28;25077;-73
2023/02/23 13:29:16;;;;;;;14.30;5.53;;;10.10;99.90;;;;;;5027899;28;25154;-75
2023/02/23 13:31:43;;;;;;;13.27;6.55;;;10.00;99.90;;;;;;5031863;28;25091;-74
2023/02/23 13:34:23;;;;;;;18.30;6.40;;;10.20;99.90;;;;;;5032711;28;25073;-72
2023/02/23 13:36:49;;;;;;;18.63;7.38;;;10.10;99.90;;;;;;5032715;28;25074;-74
2023/02/23 13:39:47;;;;;;;14.85;5.90;;;10.00;99.90;;;;;;5033890;28;25088;-74
2023/02/23 13:42:50;;;;;;;17.45;6.40;;;9.90;99.90;;;;;;5034313;28;25130;-74
2023/02/23 13:45:25;;;;;;;20.20;6.32;;;9.90;99.90;;;;;;5030878;28;25057;-74
2023/02/23 13:48:27;;;;;;;19.15;7.53;;;9.90;99.90;;;;;;5033733;28;25045;-75
2023/02/23 13:50:53;;;;;;;17.40;7.32;;;10.00;99.90;;;;;;5043032;28;25081;-75
2023/02/23 13:53:35;;;;;;;20.13;7.15;;;9.90;99.90;;;;;;5050043;28;25109;-75
2023/02/23 13:56:22;;;;;;;20.10;8.57;;;9.90;99.90;;;;;;5045285;28;25097;-74
2023/02/23 13:59:02;;;;;;;15.80;7.63;;;9.90;99.90;;;;;;5033860;28;25063;-73
2023/02/23 14:01:43;;;;;;;18.15;7.97;;;10.00;99.90;;;;;;5051404;28;25061;-76
2023/02/23 14:04:32;;;;;;;22.02;7.88;;;10.00;99.90;;;;;;5047681;28;25052;-76
2023/02/23 14:07:17;;;;;;;21.67;8.48;;;9.90;99.90;;;;;;5048785;28;25066;-75
2023/02/23 14:09:51;;;;;;;19.45;7.97;;;9.90;99.90;;;;;;5044563;28;25050;-77